createdAt,value
2019-06-07T00:01:26.852Z,18.10
2019-06-07T00:03:56.139Z,18.10
2019-06-07T00:06:26.041Z,18.00
2019-06-07T00:08:55.447Z,18.00
2019-06-07T00:11:24.671Z,18.00
2019-06-07T00:13:53.786Z,18.00
2019-06-07T00:16:23.499Z,18.00
2019-06-07T00:18:52.986Z,18.00
2019-06-07T00:22:12.225Z,18.00
2019-06-07T00:23:52.925Z,18.00
2019-06-07T00:26:22.110Z,17.90
2019-06-07T00:28:51.320Z,17.80
2019-06-07T00:31:24.166Z,17.80
2019-06-07T00:33:51.446Z,17.80
2019-06-07T00:36:23.130Z,17.70
2019-06-07T00:38:51.378Z,17.80
2019-06-07T00:41:22.240Z,17.90
2019-06-07T00:43:51.409Z,17.80
2019-06-07T00:46:21.625Z,17.80
2019-06-07T00:48:51.463Z,17.80
2019-06-07T00:51:21.903Z,17.80
2019-06-07T00:53:51.551Z,17.70
2019-06-07T00:56:22.206Z,17.70
2019-06-07T00:59:10.157Z,17.70
2019-06-07T01:01:25.300Z,17.70
2019-06-07T01:03:53.301Z,17.70
2019-06-07T01:06:24.461Z,17.70
2019-06-07T01:08:53.370Z,17.60
2019-06-07T01:11:25.436Z,17.60
2019-06-07T01:13:53.383Z,17.50
2019-06-07T01:16:24.339Z,17.50
2019-06-07T01:18:53.494Z,17.50
2019-06-07T01:21:24.840Z,17.50
2019-06-07T01:24:10.871Z,17.50
2019-06-07T01:26:26.957Z,17.50
2019-06-07T01:28:55.211Z,17.50
2019-06-07T01:31:27.602Z,17.50
2019-06-07T01:33:55.272Z,17.50
2019-06-07T01:36:28.871Z,17.40
2019-06-07T01:38:55.287Z,17.40
2019-06-07T01:41:25.894Z,17.40
2019-06-07T01:43:55.298Z,17.30
2019-06-07T01:46:26.681Z,17.20
2019-06-07T01:48:55.305Z,17.20
2019-06-07T01:51:27.004Z,17.30
2019-06-07T01:54:41.227Z,17.30
2019-06-07T01:56:29.202Z,17.30
2019-06-07T01:58:56.994Z,17.40
2019-06-07T02:01:29.721Z,17.40
2019-06-07T02:03:56.947Z,17.30
2019-06-07T02:06:31.080Z,17.40
2019-06-07T02:08:56.910Z,17.40
